Time,TemperatureF,DewpointF,PressureIn,WindDirection,WindDirectionDegrees,WindSpeedMPH,WindSpeedGustMPH,Humidity,HourlyPrecipIn,Conditions,Clouds,dailyrainin,SoftwareType,DateUTC
2013-02-08 00:04:00,32.7,20.0,29.18,ENE,70,2.7,2.7,59,0.00,,---,0.00,VWS V14.01,2013-02-08 06:04:00,
2013-02-08 00:10:00,32.4,19.2,29.18,NNE,12,0.0,0.0,58,0.00,,---,0.00,VWS V14.01,2013-02-08 06:10:00,
2013-02-08 00:15:00,32.2,19.1,29.18,NNE,12,0.0,0.0,58,0.00,,---,0.00,VWS V14.01,2013-02-08 06:15:00,
2013-02-08 00:20:00,31.8,18.7,29.18,NNE,15,0.0,0.0,58,0.00,,---,0.00,VWS V14.01,2013-02-08 06:20:00,
2013-02-08 00:25:00,31.8,19.1,29.18,NNE,14,5.4,5.4,59,0.00,,---,0.00,VWS V14.01,2013-02-08 06:25:00,
2013-02-08 00:31:00,31.6,19.0,29.18,NNE,14,5.4,5.4,59,0.00,,---,0.00,VWS V14.01,2013-02-08 06:31:00,
2013-02-08 00:36:00,31.6,19.0,29.18,North,7,0.0,5.4,59,0.00,,---,0.00,VWS V14.01,2013-02-08 06:36:00,
2013-02-08 00:41:00,31.6,19.0,29.18,North,10,0.0,0.0,59,0.00,,---,0.00,VWS V14.01,2013-02-08 06:41:00,
2013-02-08 00:46:00,31.5,19.2,29.18,North,10,0.0,0.0,60,0.00,,---,0.00,VWS V14.01,2013-02-08 06:46:00,
2013-02-08 00:51:00,31.6,19.4,29.21,NNE,25,3.1,4.0,60,0.00,,---,0.00,VWS V14.01,2013-02-08 06:51:00,
2013-02-08 00:56:00,31.6,19.4,29.21,NNE,28,6.7,6.7,60,0.00,,---,0.00,VWS V14.01,2013-02-08 06:56:00,
2013-02-08 01:01:00,31.6,19.4,29.21,NNE,28,6.7,6.7,60,0.00,,---,0.00,VWS V14.01,2013-02-08 07:01:00,
2013-02-08 01:07:00,31.6,19.4,29.21,ENE,74,3.6,3.6,60,0.00,,---,0.00,VWS V14.01,2013-02-08 07:07:00,
2013-02-08 01:12:00,31.6,19.4,29.21,ENE,74,3.6,3.6,60,0.00,,---,0.00,VWS V14.01,2013-02-08 07:12:00,
2013-02-08 01:18:00,31.6,19.4,29.21,NE,49,0.0,0.0,60,0.00,,---,0.00,VWS V14.01,2013-02-08 07:18:00,
2013-02-08 01:24:00,31.6,19.4,29.21,NNE,33,2.7,2.7,60,0.00,,---,0.00,VWS V14.01,2013-02-08 07:24:00,
2013-02-08 01:29:00,31.6,19.4,29.21,North,11,0.0,0.0,60,0.00,,---,0.00,VWS V14.01,2013-02-08 07:29:00,
2013-02-08 01:35:00,31.5,18.8,29.21,North,11,0.0,0.0,59,0.00,,---,0.00,VWS V14.01,2013-02-08 07:35:00,
2013-02-08 01:40:00,31.5,18.8,29.21,North,11,0.0,0.0,59,0.00,,---,0.00,VWS V14.01,2013-02-08 07:40:00,
2013-02-08 01:45:00,31.5,18.8,29.21,NE,43,3.6,3.6,59,0.00,,---,0.00,VWS V14.01,2013-02-08 07:45:00,
2013-02-08 01:51:00,31.3,19.0,29.21,NE,55,2.7,2.7,60,0.00,,---,0.00,VWS V14.01,2013-02-08 07:51:00,
2013-02-08 01:56:00,31.3,19.0,29.21,North,353,0.0,0.0,60,0.00,,---,0.00,VWS V14.01,2013-02-08 07:56:00,
2013-02-08 02:02:00,30.9,18.7,29.21,NW,316,2.2,2.2,60,0.00,,---,0.00,VWS V14.01,2013-02-08 08:02:00,
2013-02-08 02:07:00,31.1,18.9,29.21,NW,316,2.2,2.2,60,0.00,,---,0.00,VWS V14.01,2013-02-08 08:07:00,
2013-02-08 02:13:00,31.1,19.2,29.21,NE,39,2.7,2.7,61,0.00,,---,0.00,VWS V14.01,2013-02-08 08:13:00,
2013-02-08 02:19:00,31.1,19.2,29.21,North,9,3.1,3.1,61,0.00,,---,0.00,VWS V14.01,2013-02-08 08:19:00,
2013-02-08 02:24:00,31.1,19.2,29.21,NNE,28,0.0,0.0,61,0.00,,---,0.00,VWS V14.01,2013-02-08 08:24:00,
2013-02-08 02:30:00,31.1,19.6,29.21,NNE,33,0.0,0.0,62,0.00,,---,0.00,VWS V14.01,2013-02-08 08:30:00,
2013-02-08 02:35:00,31.1,19.6,29.21,ENE,57,0.0,4.0,62,0.00,,---,0.00,VWS V14.01,2013-02-08 08:35:00,
2013-02-08 02:40:00,31.1,19.6,29.21,ENE,57,0.0,0.0,62,0.00,,---,0.00,VWS V14.01,2013-02-08 08:40:00,
2013-02-08 02:45:00,31.1,19.6,29.21,ENE,57,0.0,0.0,62,0.00,,---,0.00,VWS V14.01,2013-02-08 08:45:00,
2013-02-08 02:50:00,31.3,19.8,29.21,North,357,0.0,0.0,62,0.00,,---,0.00,VWS V14.01,2013-02-08 08:50:00,
2013-02-08 02:55:00,31.3,19.8,29.21,North,1,0.0,0.0,62,0.00,,---,0.00,VWS V14.01,2013-02-08 08:55:00,
2013-02-08 03:01:00,31.5,20.0,29.21,North,1,0.0,0.0,62,0.00,,---,0.00,VWS V14.01,2013-02-08 09:01:00,
2013-02-08 03:06:00,31.5,20.0,29.21,SE,128,0.0,0.0,62,0.00,,---,0.00,VWS V14.01,2013-02-08 09:06:00,
2013-02-08 03:12:00,31.3,19.8,29.21,SE,128,0.0,0.0,62,0.00,,---,0.00,VWS V14.01,2013-02-08 09:12:00,
2013-02-08 03:17:00,31.3,19.8,29.21,ENE,69,0.0,0.0,62,0.00,,---,0.00,VWS V14.01,2013-02-08 09:17:00,
2013-02-08 03:22:00,31.1,19.6,29.21,ENE,69,0.0,0.0,62,0.00,,---,0.00,VWS V14.01,2013-02-08 09:22:00,
2013-02-08 03:27:00,31.1,19.6,29.21,South,173,0.0,0.0,62,0.00,,---,0.00,VWS V14.01,2013-02-08 09:27:00,
2013-02-08 03:32:00,30.9,19.5,29.21,West,270,0.0,0.0,62,0.00,,---,0.00,VWS V14.01,2013-02-08 09:32:00,
2013-02-08 03:38:00,30.9,19.5,29.21,ENE,66,5.4,5.4,62,0.00,,---,0.00,VWS V14.01,2013-02-08 09:38:00,
2013-02-08 03:43:00,30.7,19.3,29.21,NNE,26,0.0,0.0,62,0.00,,---,0.00,VWS V14.01,2013-02-08 09:43:00,
2013-02-08 03:48:00,30.7,19.3,29.24,NNE,26,0.0,0.0,62,0.00,,---,0.00,VWS V14.01,2013-02-08 09:48:00,
2013-02-08 03:54:00,30.9,19.8,29.24,NNE,26,0.0,0.0,63,0.00,,---,0.00,VWS V14.01,2013-02-08 09:54:00,
2013-02-08 03:59:00,30.7,19.6,29.24,NE,44,0.0,0.0,63,0.00,,---,0.00,VWS V14.01,2013-02-08 09:59:00,
2013-02-08 04:05:00,30.6,19.1,29.24,NE,44,0.0,0.0,62,0.00,,---,0.00,VWS V14.01,2013-02-08 10:05:00,
2013-02-08 04:11:00,30.4,18.9,29.24,NNE,25,0.0,2.7,62,0.00,,---,0.00,VWS V14.01,2013-02-08 10:11:00,
2013-02-08 04:16:00,30.4,18.9,29.24,NNE,25,0.0,0.0,62,0.00,,---,0.00,VWS V14.01,2013-02-08 10:16:00,
2013-02-08 04:22:00,30.4,19.3,29.24,ESE,120,0.0,0.0,63,0.00,,---,0.00,VWS V14.01,2013-02-08 10:22:00,
2013-02-08 04:27:00,30.4,19.3,29.24,ESE,120,0.0,0.0,63,0.00,,---,0.00,VWS V14.01,2013-02-08 10:27:00,
2013-02-08 04:32:00,30.4,19.3,29.24,ESE,120,0.0,0.0,63,0.00,,---,0.00,VWS V14.01,2013-02-08 10:32:00,
2013-02-08 04:37:00,30.4,19.3,29.24,NE,46,0.0,0.0,63,0.00,,---,0.00,VWS V14.01,2013-02-08 10:37:00,
2013-02-08 04:43:00,30.4,19.3,29.24,NE,48,0.0,5.8,63,0.00,,---,0.00,VWS V14.01,2013-02-08 10:43:00,
2013-02-08 04:48:00,30.4,19.3,29.24,NE,38,0.0,0.0,63,0.00,,---,0.00,VWS V14.01,2013-02-08 10:48:00,
2013-02-08 04:53:00,30.2,19.1,29.24,NE,38,0.0,0.0,63,0.00,,---,0.00,VWS V14.01,2013-02-08 10:53:00,
2013-02-08 04:58:00,30.2,19.1,29.24,NE,38,0.0,0.0,63,0.00,,---,0.00,VWS V14.01,2013-02-08 10:58:00,
2013-02-08 05:03:00,30.2,19.1,29.24,NNE,29,0.0,0.0,63,0.00,,---,0.00,VWS V14.01,2013-02-08 11:03:00,
2013-02-08 05:08:00,30.0,19.0,29.24,NNE,29,0.0,0.0,63,0.00,,---,0.00,VWS V14.01,2013-02-08 11:08:00,
2013-02-08 05:13:00,30.0,19.0,29.24,NNE,29,0.0,0.0,63,0.00,,---,0.00,VWS V14.01,2013-02-08 11:13:00,
2013-02-08 05:19:00,30.0,19.3,29.27,North,2,0.0,0.0,64,0.00,,---,0.00,VWS V14.01,2013-02-08 11:19:00,
2013-02-08 05:25:00,30.0,19.3,29.27,NNE,31,0.0,0.0,64,0.00,,---,0.00,VWS V14.01,2013-02-08 11:25:00,
2013-02-08 05:30:00,30.0,19.3,29.27,North,357,4.0,4.0,64,0.00,,---,0.00,VWS V14.01,2013-02-08 11:30:00,
2013-02-08 05:35:00,30.2,19.5,29.27,North,357,4.0,4.0,64,0.00,,---,0.00,VWS V14.01,2013-02-08 11:35:00,
2013-02-08 05:41:00,30.2,19.5,29.27,NE,46,0.0,0.0,64,0.00,,---,0.00,VWS V14.01,2013-02-08 11:41:00,
2013-02-08 05:46:00,30.2,19.5,29.27,North,8,0.0,0.0,64,0.00,,---,0.00,VWS V14.01,2013-02-08 11:46:00,
2013-02-08 05:51:00,30.2,19.5,29.27,North,0,0.0,0.0,64,0.00,,---,0.00,VWS V14.01,2013-02-08 11:51:00,
2013-02-08 05:56:00,30.2,19.5,29.27,North,353,0.0,0.0,64,0.00,,---,0.00,VWS V14.01,2013-02-08 11:56:00,
2013-02-08 06:02:00,30.0,19.3,29.27,North,357,0.0,0.0,64,0.00,,---,0.00,VWS V14.01,2013-02-08 12:02:00,
2013-02-08 06:07:00,30.0,19.3,29.27,North,357,0.0,0.0,64,0.00,,---,0.00,VWS V14.01,2013-02-08 12:07:00,
2013-02-08 06:12:00,30.0,19.3,29.27,North,2,0.0,0.0,64,0.00,,---,0.00,VWS V14.01,2013-02-08 12:12:00,
2013-02-08 06:18:00,30.0,19.3,29.27,North,3,0.0,0.0,64,0.00,,---,0.00,VWS V14.01,2013-02-08 12:18:00,
2013-02-08 06:24:00,30.0,19.3,29.27,NNE,28,0.0,0.0,64,0.00,,---,0.00,VWS V14.01,2013-02-08 12:24:00,
2013-02-08 06:29:00,30.0,19.7,29.27,NNE,27,0.0,0.0,65,0.00,,---,0.00,VWS V14.01,2013-02-08 12:29:00,
2013-02-08 06:35:00,30.0,19.7,29.27,East,81,2.7,2.7,65,0.00,,---,0.00,VWS V14.01,2013-02-08 12:35:00,
2013-02-08 06:40:00,30.0,19.7,29.27,NNE,18,0.0,0.0,65,0.00,,---,0.00,VWS V14.01,2013-02-08 12:40:00,
2013-02-08 06:45:00,30.0,19.7,29.27,NNE,27,0.0,0.0,65,0.00,,---,0.00,VWS V14.01,2013-02-08 12:45:00,
2013-02-08 06:50:00,30.0,19.7,29.27,East,82,0.0,0.0,65,0.00,,---,0.00,VWS V14.01,2013-02-08 12:50:00,
2013-02-08 06:56:00,29.8,19.5,29.27,NNE,19,0.0,0.0,65,0.00,,---,0.00,VWS V14.01,2013-02-08 12:56:00,
2013-02-08 07:01:00,29.8,19.5,29.27,NE,38,0.0,2.7,65,0.00,,---,0.00,VWS V14.01,2013-02-08 13:01:00,
2013-02-08 07:07:00,29.7,19.0,29.27,ENE,60,0.0,0.0,64,0.00,,---,0.00,VWS V14.01,2013-02-08 13:07:00,
2013-02-08 07:12:00,29.5,18.8,29.27,SSE,155,0.0,0.0,64,0.00,,---,0.00,VWS V14.01,2013-02-08 13:12:00,
2013-02-08 07:18:00,29.5,18.8,29.27,NNE,25,0.0,0.0,64,0.00,,---,0.00,VWS V14.01,2013-02-08 13:18:00,
2013-02-08 07:24:00,29.5,18.8,29.27,ENE,59,0.0,0.0,64,0.00,,---,0.00,VWS V14.01,2013-02-08 13:24:00,
2013-02-08 07:29:00,29.5,18.8,29.27,North,357,0.0,0.0,64,0.00,,---,0.00,VWS V14.01,2013-02-08 13:29:00,
2013-02-08 07:34:00,29.5,18.8,29.27,East,90,0.0,0.0,64,0.00,,---,0.00,VWS V14.01,2013-02-08 13:34:00,
2013-02-08 07:40:00,29.7,19.0,29.27,North,353,3.6,3.6,64,0.00,,---,0.00,VWS V14.01,2013-02-08 13:40:00,
2013-02-08 07:46:00,29.7,19.0,29.27,NNE,14,2.2,2.2,64,0.00,,---,0.00,VWS V14.01,2013-02-08 13:46:00,
2013-02-08 07:52:00,29.8,19.2,29.27,NW,322,0.0,0.0,64,0.00,,---,0.00,VWS V14.01,2013-02-08 13:52:00,
2013-02-08 07:57:00,30.0,19.3,29.27,NE,34,0.0,0.0,64,0.00,,---,0.00,VWS V14.01,2013-02-08 13:57:00,
2013-02-08 08:03:00,30.0,19.0,29.30,NNE,24,0.0,0.0,63,0.00,,---,0.00,VWS V14.01,2013-02-08 14:03:00,
2013-02-08 08:08:00,30.2,18.8,29.30,NE,43,0.0,0.0,62,0.00,,---,0.00,VWS V14.01,2013-02-08 14:08:00,
2013-02-08 08:13:00,30.2,18.8,29.30,East,80,0.0,0.0,62,0.00,,---,0.00,VWS V14.01,2013-02-08 14:13:00,
2013-02-08 08:18:00,30.4,18.6,29.30,East,80,0.0,0.0,61,0.00,,---,0.00,VWS V14.01,2013-02-08 14:18:00,
2013-02-08 08:24:00,30.6,18.7,29.30,SE,130,0.0,0.0,61,0.00,,---,0.00,VWS V14.01,2013-02-08 14:24:00,
2013-02-08 08:30:00,30.7,18.9,29.30,NNE,29,0.0,0.0,61,0.00,,---,0.00,VWS V14.01,2013-02-08 14:30:00,
2013-02-08 08:35:00,30.7,18.1,0.62,NNE,31,0.0,0.0,59,0.00,,---,0.00,VWS V14.01,2013-02-08 14:35:00,
2013-02-08 08:41:00,30.9,18.7,29.30,NNE,32,0.0,0.0,60,0.00,,---,0.00,VWS V14.01,2013-02-08 14:41:00,
2013-02-08 08:46:00,31.3,19.0,29.30,NNE,32,0.0,0.0,60,0.00,,---,0.00,VWS V14.01,2013-02-08 14:46:00,
2013-02-08 08:51:00,31.5,18.8,29.30,North,357,0.0,0.0,59,0.00,,---,0.00,VWS V14.01,2013-02-08 14:51:00,
2013-02-08 08:56:00,32.0,19.3,29.30,ENE,72,0.0,0.0,59,0.00,,---,0.00,VWS V14.01,2013-02-08 14:56:00,
2013-02-08 09:01:00,32.2,18.7,29.30,NE,54,5.4,5.4,57,0.00,,---,0.00,VWS V14.01,2013-02-08 15:01:00,
2013-02-08 09:06:00,32.5,19.0,29.30,ENE,60,0.0,2.2,57,0.00,,---,0.00,VWS V14.01,2013-02-08 15:06:00,
2013-02-08 09:12:00,32.7,19.2,29.30,East,97,0.0,0.0,57,0.00,,---,0.00,VWS V14.01,2013-02-08 15:12:00,
2013-02-08 09:17:00,32.9,19.4,29.30,ENE,77,0.0,0.0,57,0.00,,---,0.00,VWS V14.01,2013-02-08 15:17:00,
2013-02-08 09:23:00,33.1,18.7,29.30,NNE,23,0.0,0.0,55,0.00,,---,0.00,VWS V14.01,2013-02-08 15:23:00,
2013-02-08 09:28:00,33.8,19.8,29.30,NNE,25,0.0,0.0,56,0.00,,---,0.00,VWS V14.01,2013-02-08 15:28:00,
2013-02-08 09:33:00,34.0,18.7,29.30,North,7,2.2,2.2,53,0.00,,---,0.00,VWS V14.01,2013-02-08 15:33:00,
2013-02-08 09:39:00,34.3,19.0,29.30,NW,320,0.0,0.0,53,0.00,,---,0.00,VWS V14.01,2013-02-08 15:39:00,
2013-02-08 09:44:00,34.7,19.3,29.30,NE,42,3.6,3.6,53,0.00,,---,0.00,VWS V14.01,2013-02-08 15:44:00,
2013-02-08 09:50:00,34.2,17.9,29.30,ENE,74,0.0,0.0,51,0.00,,---,0.00,VWS V14.01,2013-02-08 15:50:00,
2013-02-08 09:55:00,34.2,17.9,29.30,NNE,30,0.0,0.0,51,0.00,,---,0.00,VWS V14.01,2013-02-08 15:55:00,
2013-02-08 10:01:00,34.9,18.6,29.30,East,89,0.0,4.0,51,0.00,,---,0.00,VWS V14.01,2013-02-08 16:01:00,
2013-02-08 10:07:00,36.7,20.7,29.30,ENE,58,0.0,0.0,52,0.00,,---,0.00,VWS V14.01,2013-02-08 16:07:00,
2013-02-08 10:12:00,37.4,20.0,29.30,ESE,120,0.0,0.0,49,0.00,,---,0.00,VWS V14.01,2013-02-08 16:12:00,
2013-02-08 10:18:00,37.6,19.7,29.30,ESE,120,0.0,0.0,48,0.00,,---,0.00,VWS V14.01,2013-02-08 16:18:00,
2013-02-08 10:24:00,38.8,20.4,29.30,ESE,114,0.0,0.0,47,0.00,,---,0.00,VWS V14.01,2013-02-08 16:24:00,
2013-02-08 10:29:00,39.2,19.1,29.30,NNE,31,5.4,5.4,44,0.00,,---,0.00,VWS V14.01,2013-02-08 16:29:00,
2013-02-08 10:35:00,40.3,20.1,29.30,SE,129,0.0,0.0,44,0.00,,---,0.00,VWS V14.01,2013-02-08 16:35:00,
2013-02-08 10:40:00,40.8,19.5,29.30,SE,125,0.0,0.0,42,0.00,,---,0.00,VWS V14.01,2013-02-08 16:40:00,
2013-02-08 10:45:00,40.5,18.6,29.30,SSE,155,0.0,0.0,41,0.00,,---,0.00,VWS V14.01,2013-02-08 16:45:00,
2013-02-08 10:50:00,39.6,18.4,29.30,East,88,0.0,0.0,42,0.00,,---,0.00,VWS V14.01,2013-02-08 16:50:00,
2013-02-08 10:56:00,39.9,18.1,29.30,ESE,115,0.0,0.0,41,0.00,,---,0.00,VWS V14.01,2013-02-08 16:56:00,
2013-02-08 11:01:00,39.7,18.0,29.30,NE,53,4.9,4.9,41,0.00,,---,0.00,VWS V14.01,2013-02-08 17:01:00,
2013-02-08 11:06:00,39.9,18.7,29.30,NNE,20,0.0,0.0,42,0.00,,---,0.00,VWS V14.01,2013-02-08 17:06:00,
2013-02-08 11:11:00,40.8,20.1,29.30,NNE,20,0.0,0.0,43,0.00,,---,0.00,VWS V14.01,2013-02-08 17:11:00,
2013-02-08 11:17:00,42.3,20.8,29.30,ESE,122,0.0,0.0,42,0.00,,---,0.00,VWS V14.01,2013-02-08 17:17:00,
2013-02-08 11:22:00,42.4,19.2,29.30,ESE,112,2.7,2.7,39,0.00,,---,0.00,VWS V14.01,2013-02-08 17:22:00,
2013-02-08 11:28:00,42.3,19.7,29.30,East,98,0.0,0.0,40,0.00,,---,0.00,VWS V14.01,2013-02-08 17:28:00,
2013-02-08 11:34:00,43.0,19.7,29.30,SE,128,0.0,0.0,39,0.00,,---,0.00,VWS V14.01,2013-02-08 17:34:00,
2013-02-08 11:39:00,43.0,19.7,29.30,NNE,25,0.0,0.0,39,0.00,,---,0.00,VWS V14.01,2013-02-08 17:39:00,
2013-02-08 11:45:00,43.7,20.4,29.30,SW,232,0.0,0.0,39,0.00,,---,0.00,VWS V14.01,2013-02-08 17:45:00,
2013-02-08 11:50:00,44.4,20.4,29.30,SW,229,0.0,0.0,38,0.00,,---,0.00,VWS V14.01,2013-02-08 17:50:00,
2013-02-08 11:56:00,44.8,20.7,29.30,SSW,199,0.0,0.0,38,0.00,,---,0.00,VWS V14.01,2013-02-08 17:56:00,
2013-02-08 12:02:00,45.3,21.2,29.30,NE,51,0.0,0.0,38,0.00,,---,0.00,VWS V14.01,2013-02-08 18:02:00,
2013-02-08 12:07:00,45.5,20.8,29.30,SW,220,2.7,2.7,37,0.00,,---,0.00,VWS V14.01,2013-02-08 18:07:00,
2013-02-08 12:13:00,45.5,20.8,29.30,SSW,193,0.0,0.0,37,0.00,,---,0.00,VWS V14.01,2013-02-08 18:13:00,
2013-02-08 12:18:00,46.4,21.6,29.30,SSW,193,0.0,0.0,37,0.00,,---,0.00,VWS V14.01,2013-02-08 18:18:00,
2013-02-08 12:23:00,47.3,22.4,29.30,NNE,18,3.1,3.1,37,0.00,,---,0.00,VWS V14.01,2013-02-08 18:23:00,
2013-02-08 12:30:00,47.5,22.5,29.30,NNE,29,0.0,0.0,37,0.00,,---,0.00,VWS V14.01,2013-02-08 18:30:00,
2013-02-08 12:35:00,48.2,22.5,29.30,SSW,199,0.0,0.0,36,0.00,,---,0.00,VWS V14.01,2013-02-08 18:35:00,
2013-02-08 12:41:00,48.4,20.6,29.30,SW,224,0.0,0.0,33,0.00,,---,0.00,VWS V14.01,2013-02-08 18:41:00,
2013-02-08 12:46:00,48.6,22.2,29.30,NNE,30,0.0,0.0,35,0.00,,---,0.00,VWS V14.01,2013-02-08 18:46:00,
2013-02-08 12:52:00,48.7,21.6,29.30,SW,231,0.0,0.0,34,0.00,,---,0.00,VWS V14.01,2013-02-08 18:52:00,
2013-02-08 12:58:00,48.6,21.5,29.30,SE,125,0.0,0.0,34,0.00,,---,0.00,VWS V14.01,2013-02-08 18:58:00,
2013-02-08 13:03:00,48.7,21.6,29.30,ENE,65,0.0,0.0,34,0.00,,---,0.00,VWS V14.01,2013-02-08 19:03:00,
2013-02-08 13:09:00,49.1,22.6,29.30,ENE,57,3.1,3.1,35,0.00,,---,0.00,VWS V14.01,2013-02-08 19:09:00,
2013-02-08 13:14:00,49.1,22.0,29.30,NNE,13,2.2,2.2,34,0.00,,---,0.00,VWS V14.01,2013-02-08 19:14:00,
2013-02-08 13:20:00,49.5,22.3,29.27,NNW,327,2.7,2.7,34,0.00,,---,0.00,VWS V14.01,2013-02-08 19:20:00,
2013-02-08 13:26:00,49.8,21.2,29.27,NNW,327,2.7,2.7,32,0.00,,---,0.00,VWS V14.01,2013-02-08 19:26:00,
2013-02-08 13:31:00,49.6,21.0,29.27,ESE,122,0.0,0.0,32,0.00,,---,0.00,VWS V14.01,2013-02-08 19:31:00,
2013-02-08 13:37:00,50.2,21.5,29.27,East,86,0.0,0.0,32,0.00,,---,0.00,VWS V14.01,2013-02-08 19:37:00,
2013-02-08 13:42:00,50.5,21.8,29.27,NNE,13,0.0,0.0,32,0.00,,---,0.00,VWS V14.01,2013-02-08 19:42:00,
2013-02-08 13:48:00,50.5,21.0,29.24,ESE,109,0.0,0.0,31,0.00,,---,0.00,VWS V14.01,2013-02-08 19:48:00,
2013-02-08 13:54:00,50.0,20.6,29.24,ENE,61,3.1,3.1,31,0.00,,---,0.00,VWS V14.01,2013-02-08 19:54:00,
2013-02-08 13:59:00,49.8,20.4,29.24,ENE,61,3.1,3.1,31,0.00,,---,0.00,VWS V14.01,2013-02-08 19:59:00,
2013-02-08 14:05:00,49.8,20.4,29.24,East,83,0.0,0.0,31,0.00,,---,0.00,VWS V14.01,2013-02-08 20:05:00,
2013-02-08 14:10:00,50.0,20.6,29.24,South,186,0.0,0.0,31,0.00,,---,0.00,VWS V14.01,2013-02-08 20:10:00,
2013-02-08 14:16:00,50.0,19.8,29.24,South,186,0.0,0.0,30,0.00,,---,0.00,VWS V14.01,2013-02-08 20:16:00,
2013-02-08 14:21:00,50.2,20.7,29.24,NE,50,2.7,2.7,31,0.00,,---,0.00,VWS V14.01,2013-02-08 20:21:00,
2013-02-08 14:27:00,50.2,20.0,29.24,SE,124,0.0,0.0,30,0.00,,---,0.00,VWS V14.01,2013-02-08 20:27:00,
2013-02-08 14:33:00,49.6,20.3,29.24,South,169,0.0,0.0,31,0.00,,---,0.00,VWS V14.01,2013-02-08 20:33:00,
2013-02-08 14:38:00,49.3,19.9,29.21,SE,135,2.2,6.3,31,0.00,,---,0.00,VWS V14.01,2013-02-08 20:38:00,
2013-02-08 14:43:00,48.9,19.6,29.21,SE,135,2.2,2.2,31,0.00,,---,0.00,VWS V14.01,2013-02-08 20:43:00,
2013-02-08 14:48:00,48.4,19.2,29.21,SE,129,2.7,2.7,31,0.00,,---,0.00,VWS V14.01,2013-02-08 20:48:00,
2013-02-08 14:54:00,48.2,19.0,29.21,SSE,149,3.6,3.6,31,0.00,,---,0.00,VWS V14.01,2013-02-08 20:54:00,
2013-02-08 14:59:00,48.2,19.0,29.21,NE,54,0.0,0.0,31,0.00,,---,0.00,VWS V14.01,2013-02-08 20:59:00,
2013-02-08 15:04:00,48.4,19.2,29.21,ENE,60,2.7,2.7,31,0.00,,---,0.00,VWS V14.01,2013-02-08 21:04:00,
2013-02-08 15:09:00,48.4,19.2,29.21,ESE,119,0.0,0.0,31,0.00,,---,0.00,VWS V14.01,2013-02-08 21:09:00,
2013-02-08 15:15:00,48.7,20.2,29.21,ESE,119,2.7,2.7,32,0.00,,---,0.00,VWS V14.01,2013-02-08 21:15:00,
2013-02-08 15:20:00,48.7,20.2,29.21,East,94,0.0,0.0,32,0.00,,---,0.00,VWS V14.01,2013-02-08 21:20:00,
2013-02-08 15:26:00,48.7,19.5,29.21,East,94,0.0,0.0,31,0.00,,---,0.00,VWS V14.01,2013-02-08 21:26:00,
2013-02-08 15:32:00,48.7,19.5,29.21,SW,216,0.0,0.0,31,0.00,,---,0.00,VWS V14.01,2013-02-08 21:32:00,
2013-02-08 15:37:00,48.7,19.5,29.21,SW,216,0.0,0.0,31,0.00,,---,0.00,VWS V14.01,2013-02-08 21:37:00,
2013-02-08 15:43:00,48.7,19.5,29.21,South,177,0.0,0.0,31,0.00,,---,0.00,VWS V14.01,2013-02-08 21:43:00,
2013-02-08 15:48:00,48.6,19.3,29.21,WNW,293,3.1,3.1,31,0.00,,---,0.00,VWS V14.01,2013-02-08 21:48:00,
2013-02-08 15:54:00,48.0,19.6,29.21,SSE,156,0.0,0.0,32,0.00,,---,0.00,VWS V14.01,2013-02-08 21:54:00,
2013-02-08 16:00:00,47.1,18.8,29.21,NW,320,0.0,0.0,32,0.00,,---,0.00,VWS V14.01,2013-02-08 22:00:00,
2013-02-08 16:05:00,46.2,18.7,29.21,WNW,288,3.1,3.1,33,0.00,,---,0.00,VWS V14.01,2013-02-08 22:05:00,
2013-02-08 16:11:00,45.7,18.9,29.21,ESE,115,3.1,3.1,34,0.00,,---,0.00,VWS V14.01,2013-02-08 22:11:00,
2013-02-08 16:16:00,45.3,19.3,29.21,West,280,0.0,0.0,35,0.00,,---,0.00,VWS V14.01,2013-02-08 22:16:00,
2013-02-08 16:22:00,45.1,19.8,29.21,West,266,0.0,0.0,36,0.00,,---,0.00,VWS V14.01,2013-02-08 22:22:00,
2013-02-08 16:28:00,45.1,20.4,29.21,ESE,119,0.0,0.0,37,0.00,,---,0.00,VWS V14.01,2013-02-08 22:28:00,
2013-02-08 16:33:00,45.0,20.3,29.21,SE,130,3.1,3.1,37,0.00,,---,0.00,VWS V14.01,2013-02-08 22:33:00,
2013-02-08 16:38:00,44.8,20.1,29.21,SE,126,3.1,4.0,37,0.00,,---,0.00,VWS V14.01,2013-02-08 22:38:00,
2013-02-08 16:44:00,44.4,20.4,29.21,SW,222,2.7,4.5,38,0.00,,---,0.00,VWS V14.01,2013-02-08 22:44:00,
2013-02-08 16:49:00,44.1,20.1,29.18,WNW,299,2.2,2.2,38,0.00,,---,0.00,VWS V14.01,2013-02-08 22:49:00,
2013-02-08 16:55:00,43.9,20.5,29.18,SE,138,0.0,0.0,39,0.00,,---,0.00,VWS V14.01,2013-02-08 22:55:00,
2013-02-08 17:00:00,43.3,20.1,29.18,South,188,0.0,5.4,39,0.00,,---,0.00,VWS V14.01,2013-02-08 23:00:00,
2013-02-08 17:05:00,42.8,19.6,29.18,ESE,107,0.0,0.0,39,0.00,,---,0.00,VWS V14.01,2013-02-08 23:05:00,
2013-02-08 17:10:00,42.4,19.8,29.18,ESE,105,3.6,3.6,40,0.00,,---,0.00,VWS V14.01,2013-02-08 23:10:00,
2013-02-08 17:15:00,42.3,19.7,29.18,East,99,0.0,0.0,40,0.00,,---,0.00,VWS V14.01,2013-02-08 23:15:00,
2013-02-08 17:20:00,41.7,19.8,29.18,ESE,122,0.0,0.0,41,0.00,,---,0.00,VWS V14.01,2013-02-08 23:20:00,
2013-02-08 17:26:00,41.5,19.6,29.18,SE,133,0.0,0.0,41,0.00,,---,0.00,VWS V14.01,2013-02-08 23:26:00,
2013-02-08 17:31:00,41.2,19.9,29.18,North,0,2.7,2.7,42,0.00,,---,0.00,VWS V14.01,2013-02-08 23:31:00,
2013-02-08 17:36:00,41.0,19.7,29.18,SSE,151,0.0,0.0,42,0.00,,---,0.00,VWS V14.01,2013-02-08 23:36:00,
2013-02-08 17:42:00,40.5,19.7,29.18,South,169,0.0,0.0,43,0.00,,---,0.00,VWS V14.01,2013-02-08 23:42:00,
2013-02-08 17:48:00,40.1,20.0,29.18,SE,145,0.0,0.0,44,0.00,,---,0.00,VWS V14.01,2013-02-08 23:48:00,
2013-02-08 17:53:00,39.7,19.6,29.18,SSW,199,0.0,0.0,44,0.00,,---,0.00,VWS V14.01,2013-02-08 23:53:00,
2013-02-08 17:58:00,39.2,19.7,29.18,SW,216,0.0,0.0,45,0.00,,---,0.00,VWS V14.01,2013-02-08 23:58:00,
2013-02-08 18:04:00,38.8,19.8,29.18,ESE,103,0.0,0.0,46,0.00,,---,0.00,VWS V14.01,2013-02-09 00:04:00,
2013-02-08 18:10:00,38.1,19.2,29.18,SE,136,0.0,0.0,46,0.00,,---,0.00,VWS V14.01,2013-02-09 00:10:00,
2013-02-08 18:15:00,37.9,20.5,29.18,SE,139,0.0,0.0,49,0.00,,---,0.00,VWS V14.01,2013-02-09 00:15:00,
2013-02-08 18:21:00,37.8,20.3,29.18,ESE,111,0.0,0.0,49,0.00,,---,0.00,VWS V14.01,2013-02-09 00:21:00,
2013-02-08 18:27:00,37.4,20.5,29.18,SE,138,0.0,0.0,50,0.00,,---,0.00,VWS V14.01,2013-02-09 00:27:00,
2013-02-08 18:32:00,37.0,20.6,29.18,SE,141,0.0,0.0,51,0.00,,---,0.00,VWS V14.01,2013-02-09 00:32:00,
2013-02-08 18:38:00,36.9,20.4,29.18,SE,141,0.0,0.0,51,0.00,,---,0.00,VWS V14.01,2013-02-09 00:38:00,
2013-02-08 18:44:00,36.5,20.6,29.18,SE,140,0.0,0.0,52,0.00,,---,0.00,VWS V14.01,2013-02-09 00:44:00,
2013-02-08 18:50:00,36.1,20.2,29.18,SE,141,0.0,0.0,52,0.00,,---,0.00,VWS V14.01,2013-02-09 00:50:00,
2013-02-08 18:55:00,36.0,20.1,29.18,SE,141,0.0,0.0,52,0.00,,---,0.00,VWS V14.01,2013-02-09 00:55:00,
2013-02-08 19:01:00,35.2,19.4,29.18,SE,141,0.0,0.0,52,0.00,,---,0.00,VWS V14.01,2013-02-09 01:01:00,
2013-02-08 19:06:00,34.9,19.1,29.18,SE,141,0.0,0.0,52,0.00,,---,0.00,VWS V14.01,2013-02-09 01:06:00,
2013-02-08 19:11:00,34.7,19.3,29.18,SE,141,0.0,0.0,53,0.00,,---,0.00,VWS V14.01,2013-02-09 01:11:00,
2013-02-08 19:17:00,34.5,19.6,29.18,SE,141,0.0,0.0,54,0.00,,---,0.00,VWS V14.01,2013-02-09 01:17:00,
2013-02-08 19:23:00,34.7,20.2,29.18,SE,141,0.0,0.0,55,0.00,,---,0.00,VWS V14.01,2013-02-09 01:23:00,
2013-02-08 19:29:00,34.9,20.8,29.18,SE,140,0.0,0.0,56,0.00,,---,0.00,VWS V14.01,2013-02-09 01:29:00,
2013-02-08 19:35:00,34.9,21.2,29.18,SE,145,0.0,0.0,57,0.00,,---,0.00,VWS V14.01,2013-02-09 01:35:00,
2013-02-08 19:41:00,34.9,21.6,29.18,SE,126,0.0,0.0,58,0.00,,---,0.00,VWS V14.01,2013-02-09 01:41:00,
2013-02-08 19:46:00,34.9,22.0,29.18,SSE,167,0.0,0.0,59,0.00,,---,0.00,VWS V14.01,2013-02-09 01:46:00,
2013-02-08 19:52:00,34.9,22.4,29.18,ESE,120,0.0,0.0,60,0.00,,---,0.00,VWS V14.01,2013-02-09 01:52:00,
2013-02-08 19:57:00,34.7,22.6,29.18,ESE,102,0.0,0.0,61,0.00,,---,0.00,VWS V14.01,2013-02-09 01:57:00,
2013-02-08 20:03:00,34.5,22.5,29.18,SSE,159,0.0,0.0,61,0.00,,---,0.00,VWS V14.01,2013-02-09 02:03:00,
2013-02-08 20:09:00,34.2,22.1,29.18,SE,128,0.0,0.0,61,0.00,,---,0.00,VWS V14.01,2013-02-09 02:09:00,
2013-02-08 20:14:00,33.8,21.8,29.18,NNE,25,0.0,0.0,61,0.00,,---,0.00,VWS V14.01,2013-02-09 02:14:00,
2013-02-08 20:20:00,33.8,22.2,29.18,SW,234,0.0,0.0,62,0.00,,---,0.00,VWS V14.01,2013-02-09 02:20:00,
2013-02-08 20:26:00,33.6,22.8,29.18,SSW,209,0.0,0.0,64,0.00,,---,0.00,VWS V14.01,2013-02-09 02:26:00,
2013-02-08 20:31:00,33.8,22.9,29.18,ESE,112,0.0,0.0,64,0.00,,---,0.00,VWS V14.01,2013-02-09 02:31:00,
2013-02-08 20:37:00,33.6,23.1,29.15,ESE,109,0.0,0.0,65,0.00,,---,0.00,VWS V14.01,2013-02-09 02:37:00,
2013-02-08 20:42:00,33.6,23.5,29.15,ESE,108,0.0,0.0,66,0.00,,---,0.00,VWS V14.01,2013-02-09 02:42:00,
2013-02-08 20:48:00,33.6,24.2,29.15,SE,142,0.0,4.0,68,0.00,,---,0.00,VWS V14.01,2013-02-09 02:48:00,
2013-02-08 20:53:00,33.6,24.2,29.15,SSW,201,3.1,3.6,68,0.00,,---,0.00,VWS V14.01,2013-02-09 02:53:00,
2013-02-08 20:58:00,33.4,24.0,29.15,SW,222,0.0,2.7,68,0.00,,---,0.00,VWS V14.01,2013-02-09 02:58:00,
2013-02-08 21:03:00,33.3,24.2,29.15,ESE,122,2.7,3.1,69,0.00,,---,0.00,VWS V14.01,2013-02-09 03:03:00,
2013-02-08 21:08:00,33.3,24.5,29.15,SW,218,4.0,4.0,70,0.00,,---,0.00,VWS V14.01,2013-02-09 03:08:00,
2013-02-08 21:13:00,33.3,24.5,29.15,NNW,346,2.2,2.7,70,0.00,,---,0.00,VWS V14.01,2013-02-09 03:13:00,
2013-02-08 21:19:00,33.4,25.1,29.15,SE,138,3.1,3.1,71,0.00,,---,0.00,VWS V14.01,2013-02-09 03:19:00,
2013-02-08 21:24:00,33.3,24.9,29.15,ESE,115,4.0,4.0,71,0.00,,---,0.00,VWS V14.01,2013-02-09 03:24:00,
2013-02-08 21:30:00,33.1,25.0,29.15,SE,127,3.6,4.9,72,0.00,,---,0.00,VWS V14.01,2013-02-09 03:30:00,
2013-02-08 21:36:00,33.1,25.0,29.15,SSW,199,0.0,5.4,72,0.00,,---,0.00,VWS V14.01,2013-02-09 03:36:00,
2013-02-08 21:41:00,33.1,25.4,29.15,East,99,2.7,2.7,73,0.00,,---,0.00,VWS V14.01,2013-02-09 03:41:00,
2013-02-08 21:46:00,32.9,25.2,29.15,ENE,68,2.2,5.8,73,0.00,,---,0.00,VWS V14.01,2013-02-09 03:46:00,
2013-02-08 21:52:00,32.9,25.2,29.15,SSW,209,3.1,4.9,73,0.00,,---,0.00,VWS V14.01,2013-02-09 03:52:00,
2013-02-08 21:58:00,32.7,25.0,29.15,East,93,4.9,4.9,73,0.00,,---,0.00,VWS V14.01,2013-02-09 03:58:00,
2013-02-08 22:04:00,32.5,25.2,29.15,SSE,156,3.1,7.2,74,0.00,,---,0.00,VWS V14.01,2013-02-09 04:04:00,
2013-02-08 22:09:00,32.4,25.0,29.15,ENE,62,0.0,0.0,74,0.00,,---,0.00,VWS V14.01,2013-02-09 04:09:00,
2013-02-08 22:15:00,32.2,24.8,29.15,East,97,3.1,3.1,74,0.00,,---,0.00,VWS V14.01,2013-02-09 04:15:00,
2013-02-08 22:20:00,32.0,24.7,29.15,East,101,0.0,0.0,74,0.00,,---,0.00,VWS V14.01,2013-02-09 04:20:00,
2013-02-08 22:26:00,31.8,24.8,29.15,North,2,0.0,4.9,75,0.00,,---,0.00,VWS V14.01,2013-02-09 04:26:00,
2013-02-08 22:32:00,31.6,24.6,29.15,NE,49,3.1,3.1,75,0.00,,---,0.00,VWS V14.01,2013-02-09 04:32:00,
2013-02-08 22:37:00,31.6,24.6,29.15,South,187,6.3,6.3,75,0.00,,---,0.00,VWS V14.01,2013-02-09 04:37:00,
2013-02-08 22:43:00,31.5,24.8,29.15,East,88,3.1,3.6,76,0.00,,---,0.00,VWS V14.01,2013-02-09 04:43:00,
2013-02-08 22:48:00,31.5,25.1,29.15,SSE,160,0.0,2.7,77,0.00,,---,0.00,VWS V14.01,2013-02-09 04:48:00,
2013-02-08 22:54:00,31.3,24.9,29.15,East,83,0.0,5.4,77,0.00,,---,0.00,VWS V14.01,2013-02-09 04:54:00,
2013-02-08 23:00:00,31.1,24.8,29.15,ENE,73,2.7,4.0,77,0.00,,---,0.00,VWS V14.01,2013-02-09 05:00:00,
2013-02-08 23:04:00,31.1,25.0,29.15,SE,138,0.0,0.0,78,0.00,,---,0.00,VWS V14.01,2013-02-09 05:04:00,
2013-02-08 23:05:00,31.1,25.0,29.15,WNW,290,3.6,5.4,78,0.00,,---,0.00,VWS V14.01,2013-02-09 05:05:00,
2013-02-08 23:07:00,31.1,25.0,29.15,ENE,70,0.0,4.5,78,0.00,,---,0.00,VWS V14.01,2013-02-09 05:07:00,
2013-02-08 23:12:00,31.1,25.0,29.15,East,87,0.0,4.0,78,0.00,,---,0.00,VWS V14.01,2013-02-09 05:12:00,
2013-02-08 23:18:00,30.9,24.9,29.15,SSE,148,2.2,5.8,78,0.00,,---,0.00,VWS V14.01,2013-02-09 05:18:00,
2013-02-08 23:23:00,30.9,24.9,29.15,East,89,2.7,4.0,78,0.00,,---,0.00,VWS V14.01,2013-02-09 05:23:00,
2013-02-08 23:29:00,30.7,25.0,29.15,ENE,70,0.0,0.0,79,0.00,,---,0.00,VWS V14.01,2013-02-09 05:29:00,
2013-02-08 23:34:00,30.6,24.5,29.15,ESE,109,2.7,3.6,78,0.00,,---,0.00,VWS V14.01,2013-02-09 05:34:00,
2013-02-08 23:40:00,30.4,24.4,29.15,ENE,72,0.0,3.1,78,0.00,,---,0.00,VWS V14.01,2013-02-09 05:40:00,
2013-02-08 23:46:00,30.4,24.4,29.15,ESE,123,4.9,4.9,78,0.00,,---,0.00,VWS V14.01,2013-02-09 05:46:00,
2013-02-08 23:51:00,30.4,24.7,29.15,SE,125,3.1,4.9,79,0.00,,---,0.00,VWS V14.01,2013-02-09 05:51:00,
2013-02-08 23:56:00,30.4,24.7,29.15,SSE,150,0.0,2.2,79,0.00,,---,0.00,VWS V14.01,2013-02-09 05:56:00,